createdAt,value
2023-04-17T00:02:18.939Z,9.90
2023-04-17T00:04:46.847Z,9.90
2023-04-17T00:07:14.089Z,9.90
2023-04-17T00:09:40.982Z,9.90
2023-04-17T00:12:07.992Z,9.90
2023-04-17T00:14:34.873Z,9.80
2023-04-17T00:17:01.920Z,9.80
2023-04-17T00:19:28.908Z,9.80
2023-04-17T00:21:55.861Z,9.80
2023-04-17T00:24:22.815Z,9.80
2023-04-17T00:26:49.727Z,9.80
2023-04-17T00:29:16.871Z,9.70
2023-04-17T00:31:44.095Z,9.70
2023-04-17T00:34:11.014Z,9.70
2023-04-17T00:36:37.954Z,9.70
2023-04-17T00:39:04.918Z,9.70
2023-04-17T00:41:31.872Z,9.60
2023-04-17T00:43:58.785Z,9.60
2023-04-17T00:46:25.894Z,9.60
2023-04-17T00:48:53.016Z,9.60
2023-04-17T00:51:20.302Z,9.50
2023-04-17T00:53:48.080Z,9.50
2023-04-17T00:56:15.214Z,9.50
2023-04-17T00:58:42.236Z,9.40
2023-04-17T01:01:09.454Z,9.40
2023-04-17T01:03:36.526Z,9.40
2023-04-17T01:06:03.921Z,9.40
2023-04-17T01:08:42.075Z,9.40
2023-04-17T01:11:10.002Z,9.30
2023-04-17T01:13:50.683Z,9.30
2023-04-17T01:16:18.945Z,9.30
2023-04-17T01:18:48.356Z,9.20
2023-04-17T01:21:16.013Z,9.20
2023-04-17T01:23:53.421Z,9.20
2023-04-17T01:26:24.482Z,9.10
2023-04-17T01:28:58.929Z,9.10
2023-04-17T01:31:30.381Z,9.10
2023-04-17T01:33:57.654Z,9.00
2023-04-17T01:36:24.631Z,9.00
2023-04-17T01:38:51.576Z,9.00
2023-04-17T01:41:18.612Z,9.00
2023-04-17T01:43:47.309Z,9.00
2023-04-17T01:46:14.507Z,9.00
2023-04-17T01:48:41.757Z,9.00
2023-04-17T01:51:10.071Z,9.00
2023-04-17T01:53:38.167Z,9.00
2023-04-17T01:56:05.372Z,9.00
2023-04-17T01:58:32.331Z,9.00
2023-04-17T02:01:00.324Z,9.00
2023-04-17T02:03:27.566Z,9.00
2023-04-17T02:05:54.803Z,9.00
2023-04-17T02:08:21.990Z,9.00
2023-04-17T02:10:48.849Z,9.00
2023-04-17T02:13:16.023Z,9.00
2023-04-17T02:15:43.779Z,8.90
2023-04-17T02:18:10.991Z,8.90
2023-04-17T02:20:38.998Z,8.90
2023-04-17T02:23:07.001Z,8.90
2023-04-17T02:25:34.440Z,8.90
2023-04-17T02:28:01.438Z,8.90
2023-04-17T02:30:31.273Z,8.90
2023-04-17T02:32:58.956Z,8.90
2023-04-17T02:35:32.419Z,8.80
2023-04-17T02:37:59.414Z,8.90
2023-04-17T02:40:26.717Z,8.90
2023-04-17T02:42:57.895Z,8.80
2023-04-17T02:45:24.861Z,8.90
2023-04-17T02:47:55.224Z,8.80
2023-04-17T02:50:22.789Z,8.80
2023-04-17T02:52:49.809Z,8.90
2023-04-17T02:55:17.229Z,8.90
2023-04-17T02:57:44.757Z,8.90
2023-04-17T03:00:17.216Z,8.90
2023-04-17T03:02:44.293Z,8.90
2023-04-17T03:05:11.734Z,8.90
2023-04-17T03:07:41.167Z,8.90
2023-04-17T03:10:11.544Z,8.80
2023-04-17T03:12:42.668Z,8.80
2023-04-17T03:15:12.609Z,8.80
2023-04-17T03:17:39.625Z,8.80
2023-04-17T03:20:09.973Z,8.80
2023-04-17T03:25:18.241Z,8.80
2023-04-17T03:27:46.045Z,8.80
2023-04-17T03:30:13.670Z,8.80
2023-04-17T03:32:45.993Z,8.80
2023-04-17T03:35:16.786Z,8.80
2023-04-17T03:37:45.672Z,8.80
2023-04-17T03:40:12.750Z,8.80
2023-04-17T03:42:39.771Z,8.80
2023-04-17T03:45:07.682Z,8.70
2023-04-17T03:47:34.619Z,8.70
2023-04-17T03:50:01.694Z,8.70
2023-04-17T03:52:28.602Z,8.70
2023-04-17T03:54:55.754Z,8.70
2023-04-17T03:57:22.738Z,8.70
2023-04-17T03:59:49.965Z,8.70
2023-04-17T04:02:17.176Z,8.70
2023-04-17T04:04:44.275Z,8.70
2023-04-17T04:07:11.215Z,8.70
2023-04-17T04:09:38.091Z,8.60
2023-04-17T04:12:05.289Z,8.60
2023-04-17T04:14:32.201Z,8.60
2023-04-17T04:16:59.246Z,8.60
2023-04-17T04:19:26.232Z,8.60
2023-04-17T04:21:53.762Z,8.60
2023-04-17T04:24:20.797Z,8.60
2023-04-17T04:26:49.808Z,8.60
2023-04-17T04:29:16.769Z,8.60
2023-04-17T04:31:46.987Z,8.50
2023-04-17T04:34:17.004Z,8.50
2023-04-17T04:36:50.050Z,8.50
2023-04-17T04:39:20.799Z,8.50
2023-04-17T04:41:50.689Z,8.50
2023-04-17T04:44:19.240Z,8.50
2023-04-17T04:46:46.644Z,8.50
2023-04-17T04:49:14.071Z,8.50
2023-04-17T04:51:41.206Z,8.50
2023-04-17T04:54:08.197Z,8.50
2023-04-17T04:56:35.063Z,8.50
2023-04-17T04:59:02.055Z,8.50
2023-04-17T05:01:29.870Z,8.50
2023-04-17T05:03:57.235Z,8.50
2023-04-17T05:06:24.577Z,8.50
2023-04-17T05:08:52.122Z,8.50
2023-04-17T05:11:19.335Z,8.40
2023-04-17T05:13:46.286Z,8.50
2023-04-17T05:16:13.229Z,8.50
2023-04-17T05:18:40.137Z,8.50
2023-04-17T05:21:07.095Z,8.40
2023-04-17T05:23:34.086Z,8.50
2023-04-17T05:26:01.038Z,8.50
2023-04-17T05:28:29.858Z,8.50
2023-04-17T05:30:57.811Z,8.50
2023-04-17T05:33:25.317Z,8.50
2023-04-17T05:35:56.085Z,8.50
2023-04-17T05:38:23.675Z,8.50
2023-04-17T05:40:50.791Z,8.50
2023-04-17T05:43:17.870Z,8.60
2023-04-17T05:45:45.822Z,8.50
2023-04-17T05:48:12.752Z,8.60
2023-04-17T05:50:39.677Z,8.60
2023-04-17T05:53:06.734Z,8.60
2023-04-17T05:55:33.724Z,8.60
2023-04-17T05:58:05.657Z,8.70
2023-04-17T06:00:38.272Z,8.70
2023-04-17T06:03:06.254Z,8.80
2023-04-17T06:05:33.757Z,8.80
2023-04-17T06:08:00.782Z,8.90
2023-04-17T06:10:27.789Z,8.90
2023-04-17T06:12:54.817Z,9.00
2023-04-17T06:15:21.811Z,9.00
2023-04-17T06:17:48.730Z,9.10
2023-04-17T06:20:15.846Z,9.10
2023-04-17T06:22:45.025Z,9.10
2023-04-17T06:25:12.002Z,9.10
2023-04-17T06:27:39.068Z,9.00
2023-04-17T06:30:07.400Z,9.10
2023-04-17T06:32:34.786Z,9.10
2023-04-17T06:35:02.102Z,9.10
2023-04-17T06:37:29.138Z,9.10
2023-04-17T06:39:56.118Z,9.20
2023-04-17T06:42:22.962Z,9.20
2023-04-17T06:44:49.850Z,9.30
2023-04-17T06:47:16.787Z,9.30
2023-04-17T06:49:43.680Z,9.30
2023-04-17T06:52:12.332Z,9.40
2023-04-17T06:54:39.452Z,9.50
2023-04-17T06:57:09.930Z,9.50
2023-04-17T06:59:36.929Z,9.60
2023-04-17T07:02:04.142Z,9.70
2023-04-17T07:04:32.004Z,9.80
2023-04-17T07:06:58.986Z,9.90
2023-04-17T07:09:26.481Z,10.00
2023-04-17T07:11:56.114Z,10.10
2023-04-17T07:14:27.321Z,10.30
2023-04-17T07:16:54.509Z,10.40
2023-04-17T07:19:21.504Z,10.40
2023-04-17T07:21:48.510Z,10.50
2023-04-17T07:24:15.446Z,10.70
2023-04-17T07:26:43.427Z,11.00
2023-04-17T07:29:10.790Z,11.20
2023-04-17T07:31:39.359Z,11.30
2023-04-17T07:34:06.845Z,11.20
2023-04-17T07:36:34.009Z,11.50
2023-04-17T07:39:01.528Z,11.70
2023-04-17T07:41:28.430Z,12.00
2023-04-17T07:43:57.777Z,12.20
2023-04-17T07:46:26.227Z,12.30
2023-04-17T07:48:53.184Z,12.40
2023-04-17T07:51:20.114Z,12.30
2023-04-17T07:53:47.142Z,12.10
2023-04-17T07:56:14.143Z,12.30
2023-04-17T07:58:42.341Z,12.40
2023-04-17T08:01:11.169Z,12.40
2023-04-17T08:03:41.972Z,12.50
2023-04-17T08:06:09.166Z,12.50
2023-04-17T08:08:36.434Z,12.80
2023-04-17T08:11:03.856Z,12.90
2023-04-17T08:13:34.099Z,12.70
2023-04-17T08:16:01.681Z,12.50
2023-04-17T08:18:28.703Z,12.60
2023-04-17T08:20:55.713Z,12.60
2023-04-17T08:23:22.674Z,12.40
2023-04-17T08:25:49.727Z,12.60
2023-04-17T08:28:17.009Z,12.90
2023-04-17T08:30:44.239Z,13.30
2023-04-17T08:33:13.829Z,14.00
2023-04-17T08:35:40.823Z,14.10
2023-04-17T08:38:08.384Z,14.10
2023-04-17T08:40:35.479Z,14.10
2023-04-17T08:43:03.068Z,13.90
2023-04-17T08:45:30.640Z,14.10
2023-04-17T08:47:57.678Z,14.50
2023-04-17T08:50:24.598Z,14.70
2023-04-17T08:52:52.857Z,14.40
2023-04-17T08:55:29.152Z,14.00
2023-04-17T08:58:07.264Z,13.80
2023-04-17T09:00:45.350Z,13.70
2023-04-17T09:03:14.352Z,13.80
2023-04-17T09:05:43.754Z,13.90
2023-04-17T09:08:16.689Z,13.90
2023-04-17T09:10:44.825Z,14.10
2023-04-17T09:13:16.493Z,14.00
2023-04-17T09:15:46.316Z,13.60
2023-04-17T09:18:32.294Z,13.70
2023-04-17T09:21:00.875Z,13.40
2023-04-17T09:23:29.851Z,13.20
2023-04-17T09:26:16.678Z,13.50
2023-04-17T09:29:14.825Z,14.20
2023-04-17T09:31:43.661Z,14.40
2023-04-17T09:34:12.439Z,14.20
2023-04-17T09:36:41.768Z,14.30
2023-04-17T09:39:24.579Z,14.30
2023-04-17T09:42:04.386Z,14.00
2023-04-17T09:44:31.581Z,14.30
2023-04-17T09:47:01.398Z,14.20
2023-04-17T09:49:40.629Z,14.10
2023-04-17T09:52:07.756Z,14.00
2023-04-17T09:54:38.499Z,14.10
2023-04-17T09:57:10.344Z,14.40
2023-04-17T09:59:43.233Z,14.40
2023-04-17T10:02:12.741Z,14.10
2023-04-17T10:04:44.554Z,14.00
2023-04-17T10:07:14.156Z,13.80
2023-04-17T10:09:42.095Z,13.70
2023-04-17T10:12:17.840Z,13.80
2023-04-17T10:14:48.421Z,14.30
2023-04-17T10:17:31.601Z,14.30
2023-04-17T10:20:38.991Z,14.10
2023-04-17T10:23:33.006Z,14.10
2023-04-17T10:26:48.285Z,14.30
2023-04-17T10:29:15.333Z,14.80
2023-04-17T10:32:30.141Z,14.90
2023-04-17T10:35:01.371Z,14.80
2023-04-17T10:38:02.073Z,15.20
2023-04-17T10:40:33.790Z,15.50
2023-04-17T10:43:15.065Z,15.90
2023-04-17T10:46:05.536Z,16.10
2023-04-17T10:48:46.050Z,15.80
2023-04-17T10:51:42.247Z,15.60
2023-04-17T10:54:15.574Z,15.40
2023-04-17T10:56:48.796Z,15.40
2023-04-17T10:59:17.416Z,15.60
2023-04-17T11:02:11.447Z,16.00
2023-04-17T11:04:38.676Z,16.00
2023-04-17T11:07:05.816Z,16.00
2023-04-17T11:09:34.083Z,15.80
2023-04-17T11:12:02.216Z,15.90
2023-04-17T11:14:30.528Z,16.10
2023-04-17T11:16:57.701Z,16.20
2023-04-17T11:19:25.971Z,16.10
2023-04-17T11:21:54.743Z,16.00
2023-04-17T11:24:29.700Z,15.60
2023-04-17T11:26:59.942Z,15.20
2023-04-17T11:29:29.866Z,15.40
2023-04-17T11:31:58.467Z,15.50
2023-04-17T11:34:27.388Z,15.60
2023-04-17T11:36:59.842Z,15.50
2023-04-17T11:39:32.821Z,15.40
2023-04-17T11:42:00.658Z,15.40
2023-04-17T11:44:29.064Z,15.50
2023-04-17T11:46:58.790Z,15.80
2023-04-17T11:49:30.968Z,15.80
2023-04-17T11:52:01.353Z,15.60
2023-04-17T11:54:30.169Z,15.60
2023-04-17T11:57:05.356Z,15.20
2023-04-17T11:59:38.035Z,14.90
2023-04-17T12:02:07.467Z,15.00
2023-04-17T12:04:36.931Z,15.20
2023-04-17T12:07:05.522Z,15.10
2023-04-17T12:09:33.841Z,15.10
2023-04-17T12:12:04.139Z,15.10
2023-04-17T12:14:31.962Z,15.20
2023-04-17T12:16:59.406Z,15.40
2023-04-17T12:19:27.481Z,15.50
2023-04-17T12:21:55.263Z,15.70
2023-04-17T12:24:24.301Z,15.70
2023-04-17T12:26:52.014Z,15.70
2023-04-17T12:29:26.496Z,15.80
2023-04-17T12:31:59.989Z,15.70
2023-04-17T12:34:33.747Z,15.50
2023-04-17T12:37:01.276Z,15.70
2023-04-17T12:39:28.541Z,15.40
2023-04-17T12:41:55.444Z,15.10
2023-04-17T12:44:22.360Z,15.00
2023-04-17T12:46:49.271Z,15.00
2023-04-17T12:49:16.589Z,14.90
2023-04-17T12:51:43.513Z,14.90
2023-04-17T12:54:10.624Z,15.00
2023-04-17T12:56:37.656Z,15.20
2023-04-17T12:59:04.809Z,15.50
2023-04-17T13:01:31.839Z,15.50
2023-04-17T13:03:59.073Z,15.50
2023-04-17T13:06:28.180Z,15.60
2023-04-17T13:08:55.144Z,15.50
2023-04-17T13:11:22.435Z,15.40
2023-04-17T13:13:49.447Z,15.20
2023-04-17T13:16:16.491Z,15.10
2023-04-17T13:18:43.498Z,14.90
2023-04-17T13:21:10.436Z,14.80
2023-04-17T13:23:37.366Z,15.00
2023-04-17T13:26:04.532Z,15.20
2023-04-17T13:28:31.425Z,15.30
2023-04-17T13:30:58.608Z,15.20
2023-04-17T13:33:25.947Z,15.00
2023-04-17T13:35:54.430Z,14.80
2023-04-17T13:38:22.052Z,14.80
2023-04-17T13:40:49.012Z,15.00
2023-04-17T13:43:15.988Z,14.90
2023-04-17T13:45:43.636Z,15.00
2023-04-17T13:48:11.625Z,15.20
2023-04-17T13:50:38.789Z,15.30
2023-04-17T13:53:05.911Z,15.40
2023-04-17T13:55:32.873Z,15.40
2023-04-17T13:58:00.607Z,15.40
2023-04-17T14:00:27.556Z,15.30
2023-04-17T14:02:54.643Z,15.30
2023-04-17T14:05:21.673Z,15.30
2023-04-17T14:07:48.588Z,15.30
2023-04-17T14:10:15.636Z,15.60
2023-04-17T14:12:42.820Z,15.70
2023-04-17T14:15:10.380Z,15.60
2023-04-17T14:17:41.053Z,15.50
2023-04-17T14:20:09.917Z,15.30
2023-04-17T14:22:36.998Z,15.20
2023-04-17T14:25:04.223Z,15.30
2023-04-17T14:27:31.226Z,15.40
2023-04-17T14:30:00.669Z,15.60
2023-04-17T14:32:28.562Z,15.60
2023-04-17T14:34:55.853Z,15.20
2023-04-17T14:37:22.890Z,15.00
2023-04-17T14:39:49.837Z,14.90
2023-04-17T14:42:16.777Z,15.00
2023-04-17T14:44:44.180Z,15.10
2023-04-17T14:47:13.212Z,15.20
2023-04-17T14:49:40.355Z,15.30
2023-04-17T14:52:07.450Z,15.30
2023-04-17T14:54:34.523Z,15.20
2023-04-17T14:57:01.672Z,15.30
2023-04-17T14:59:28.872Z,15.50
2023-04-17T15:01:56.135Z,15.70
2023-04-17T15:04:23.357Z,15.80
2023-04-17T15:06:50.459Z,15.60
2023-04-17T15:09:17.426Z,15.40
2023-04-17T15:11:44.490Z,15.20
2023-04-17T15:14:11.467Z,15.00
2023-04-17T15:16:39.251Z,14.80
2023-04-17T15:19:06.279Z,14.60
2023-04-17T15:21:33.324Z,14.60
2023-04-17T15:24:00.514Z,14.70
2023-04-17T15:26:27.507Z,14.70
2023-04-17T15:28:54.915Z,14.70
2023-04-17T15:31:22.266Z,14.80
2023-04-17T15:33:49.515Z,14.90
2023-04-17T15:36:16.806Z,15.00
2023-04-17T15:38:44.310Z,15.00
2023-04-17T15:41:11.488Z,15.00
2023-04-17T15:43:38.838Z,15.10
2023-04-17T15:46:06.080Z,15.10
2023-04-17T15:48:33.025Z,15.30
2023-04-17T15:51:02.662Z,15.40
2023-04-17T15:53:29.650Z,15.40
2023-04-17T15:55:56.547Z,15.40
2023-04-17T15:58:23.490Z,15.20
2023-04-17T16:00:50.537Z,15.10
2023-04-17T16:03:17.787Z,15.00
2023-04-17T16:05:44.989Z,14.90
2023-04-17T16:08:11.890Z,14.80
2023-04-17T16:10:39.934Z,14.80
2023-04-17T16:13:06.857Z,14.80
2023-04-17T16:15:33.890Z,14.80
2023-04-17T16:18:01.179Z,14.70
2023-04-17T16:20:28.241Z,14.70
2023-04-17T16:22:56.277Z,14.70
2023-04-17T16:25:23.311Z,14.70
2023-04-17T16:27:50.428Z,14.60
2023-04-17T16:30:18.177Z,14.60
2023-04-17T16:32:45.940Z,14.60
2023-04-17T16:35:13.760Z,14.60
2023-04-17T16:37:40.829Z,14.60
2023-04-17T16:40:08.818Z,14.60
2023-04-17T16:42:35.950Z,14.60
2023-04-17T16:45:03.869Z,14.50
2023-04-17T16:47:31.334Z,14.60
2023-04-17T16:49:58.390Z,14.50
2023-04-17T16:52:25.327Z,14.50
2023-04-17T16:54:52.269Z,14.50
2023-04-17T16:57:19.211Z,14.50
2023-04-17T16:59:46.116Z,14.50
2023-04-17T17:02:14.174Z,14.60
2023-04-17T17:04:41.427Z,14.60
2023-04-17T17:07:08.617Z,14.60
2023-04-17T17:09:35.651Z,14.60
2023-04-17T17:12:03.443Z,14.60
2023-04-17T17:14:30.470Z,14.60
2023-04-17T17:16:57.473Z,14.60
2023-04-17T17:19:24.504Z,14.50
2023-04-17T17:21:51.506Z,14.50
2023-04-17T17:24:18.370Z,14.50
2023-04-17T17:26:45.367Z,14.50
2023-04-17T17:29:12.610Z,14.50
2023-04-17T17:31:40.590Z,14.50
2023-04-17T17:34:22.663Z,14.50
2023-04-17T17:36:52.954Z,14.50
2023-04-17T17:39:22.059Z,14.50
2023-04-17T17:41:49.486Z,14.40
2023-04-17T17:44:16.585Z,14.30
2023-04-17T17:46:43.784Z,14.20
2023-04-17T17:49:10.908Z,14.10
2023-04-17T17:51:38.073Z,14.00
2023-04-17T17:54:05.347Z,13.90
2023-04-17T17:56:32.494Z,13.90
2023-04-17T17:58:59.446Z,13.90
2023-04-17T18:01:26.487Z,13.90
2023-04-17T18:03:53.908Z,13.80
2023-04-17T18:06:21.483Z,13.70
2023-04-17T18:08:48.552Z,13.70
2023-04-17T18:11:15.811Z,13.60
2023-04-17T18:13:42.814Z,13.50
2023-04-17T18:16:10.084Z,13.40
2023-04-17T18:18:37.505Z,13.40
2023-04-17T18:21:08.614Z,13.30
2023-04-17T18:23:35.761Z,13.30
2023-04-17T18:26:03.858Z,13.30
2023-04-17T18:28:30.922Z,13.20
2023-04-17T18:30:58.406Z,13.10
2023-04-17T18:33:25.851Z,13.10
2023-04-17T18:35:54.202Z,13.10
2023-04-17T18:38:21.371Z,13.10
2023-04-17T18:40:53.215Z,13.00
2023-04-17T18:43:20.118Z,12.90
2023-04-17T18:45:47.060Z,12.80
2023-04-17T18:48:14.029Z,12.70
2023-04-17T18:50:40.996Z,12.60
2023-04-17T18:53:08.018Z,12.50
2023-04-17T18:55:37.366Z,12.40
2023-04-17T18:58:05.414Z,12.40
2023-04-17T19:00:32.746Z,12.30
2023-04-17T19:02:59.793Z,12.20
2023-04-17T19:05:27.297Z,12.20
2023-04-17T19:07:54.332Z,12.10
2023-04-17T19:10:21.453Z,12.10
2023-04-17T19:12:48.620Z,12.00
2023-04-17T19:15:17.710Z,12.00
2023-04-17T19:17:44.890Z,12.00
2023-04-17T19:20:12.122Z,12.00
2023-04-17T19:22:39.347Z,11.90
2023-04-17T19:25:06.930Z,11.90
2023-04-17T19:27:34.117Z,12.00
2023-04-17T19:30:01.092Z,12.00
2023-04-17T19:32:29.815Z,12.00
2023-04-17T19:34:58.214Z,12.00
2023-04-17T19:37:25.359Z,12.00
2023-04-17T19:39:56.406Z,12.00
2023-04-17T19:42:23.772Z,11.90
2023-04-17T19:44:50.845Z,11.90
2023-04-17T19:47:17.906Z,11.80
2023-04-17T19:49:45.080Z,11.70
2023-04-17T19:52:12.407Z,11.70
2023-04-17T19:54:39.483Z,11.70
2023-04-17T19:57:06.592Z,11.60
2023-04-17T19:59:33.548Z,11.50
2023-04-17T20:02:00.621Z,11.50
2023-04-17T20:04:27.988Z,11.50
2023-04-17T20:06:55.108Z,11.40
2023-04-17T20:09:22.021Z,11.30
2023-04-17T20:11:49.005Z,11.40
2023-04-17T20:14:17.451Z,11.30
2023-04-17T20:16:46.423Z,11.20
2023-04-17T20:19:14.465Z,11.20
2023-04-17T20:21:42.562Z,11.10
2023-04-17T20:24:09.503Z,11.10
2023-04-17T20:26:37.567Z,11.10
2023-04-17T20:29:04.688Z,11.00
2023-04-17T20:31:34.124Z,11.00
2023-04-17T20:34:01.063Z,11.00
2023-04-17T20:36:28.263Z,10.90
2023-04-17T20:38:55.246Z,10.90
2023-04-17T20:41:22.227Z,10.80
2023-04-17T20:44:01.879Z,10.80
2023-04-17T20:46:29.820Z,10.70
2023-04-17T20:48:56.838Z,10.70
2023-04-17T20:51:26.408Z,10.60
2023-04-17T20:53:54.377Z,10.60
2023-04-17T20:56:22.083Z,10.50
2023-04-17T20:58:48.996Z,10.50
2023-04-17T21:01:16.512Z,10.50
2023-04-17T21:03:44.348Z,10.50
2023-04-17T21:06:11.440Z,10.40
2023-04-17T21:08:39.984Z,10.40
2023-04-17T21:11:07.106Z,10.30
2023-04-17T21:13:34.443Z,10.20
2023-04-17T21:16:01.417Z,10.20
2023-04-17T21:18:28.378Z,10.10
2023-04-17T21:20:55.716Z,10.10
2023-04-17T21:23:22.624Z,10.10
2023-04-17T21:25:51.932Z,10.00
2023-04-17T21:28:18.902Z,10.00
2023-04-17T21:30:47.285Z,9.90
2023-04-17T21:33:14.378Z,9.90
2023-04-17T21:35:41.351Z,9.80
2023-04-17T21:38:08.419Z,9.70
2023-04-17T21:40:37.083Z,9.70
2023-04-17T21:43:04.441Z,9.70
2023-04-17T21:45:32.110Z,9.60
2023-04-17T21:47:59.198Z,9.60
2023-04-17T21:50:26.244Z,9.60
2023-04-17T21:52:53.183Z,9.40
2023-04-17T21:55:20.216Z,9.30
2023-04-17T21:57:47.172Z,9.30
2023-04-17T22:00:14.526Z,9.20
2023-04-17T22:02:41.727Z,9.20
2023-04-17T22:05:09.235Z,9.20
2023-04-17T22:07:44.002Z,9.10
2023-04-17T22:10:21.120Z,9.00
2023-04-17T22:12:48.042Z,8.90
2023-04-17T22:15:14.966Z,8.90
2023-04-17T22:17:41.960Z,8.90
2023-04-17T22:20:09.667Z,8.90
2023-04-17T22:22:36.661Z,8.90
2023-04-17T22:25:03.702Z,8.80
2023-04-17T22:27:30.650Z,8.70
2023-04-17T22:29:57.664Z,8.70
2023-04-17T22:32:25.053Z,8.60
2023-04-17T22:34:52.027Z,8.60
2023-04-17T22:37:19.337Z,8.60
2023-04-17T22:39:46.551Z,8.50
2023-04-17T22:42:13.658Z,8.50
2023-04-17T22:44:40.672Z,8.50
2023-04-17T22:47:07.691Z,8.50
2023-04-17T22:49:52.964Z,8.50
2023-04-17T22:52:23.287Z,8.60
2023-04-17T22:54:50.180Z,8.60
2023-04-17T22:57:17.061Z,8.50
2023-04-17T22:59:43.960Z,8.50
2023-04-17T23:02:19.085Z,8.40
2023-04-17T23:04:46.035Z,8.40
2023-04-17T23:07:13.034Z,8.30
2023-04-17T23:09:42.905Z,8.30
2023-04-17T23:12:09.896Z,8.10
2023-04-17T23:14:36.838Z,8.00
2023-04-17T23:17:03.703Z,8.10
2023-04-17T23:19:30.722Z,8.00
2023-04-17T23:21:59.715Z,8.00
2023-04-17T23:24:29.531Z,8.10
2023-04-17T23:27:02.178Z,8.10
2023-04-17T23:29:29.373Z,8.00
2023-04-17T23:31:56.624Z,8.00
2023-04-17T23:34:23.663Z,8.00
2023-04-17T23:36:50.716Z,7.90
2023-04-17T23:39:17.580Z,7.90
2023-04-17T23:41:45.669Z,7.80
2023-04-17T23:44:12.983Z,7.70
2023-04-17T23:46:43.157Z,7.70
2023-04-17T23:49:10.100Z,7.70
2023-04-17T23:51:37.003Z,7.60
2023-04-17T23:54:04.045Z,7.60
2023-04-17T23:56:31.159Z,7.60
2023-04-17T23:58:58.150Z,7.60
